Time;durP1;ratioP1;P1;durP2;ratioP2;P2;SDS_P1;SDS_P2;PMS_P1;PMS_P2;Temp;Humidity;BMP_temperature;BMP_pressure;BME280_temperature;BME280_humidity;BME280_pressure;Samples;Min_cycle;Max_cycle;Signal;HPM_P1;HPM_P2
2021/10/30 00:00:49;;;;;;;36.92;20.55;;;;;;;10.15;100.00;100452.66;5014581;28;20033;-61
2021/10/30 00:03:14;;;;;;;36.10;20.70;;;;;;;10.18;100.00;100448.25;5014669;28;20037;-61
2021/10/30 00:05:39;;;;;;;38.35;21.83;;;;;;;10.25;100.00;100450.03;5014326;28;20028;-63
2021/10/30 00:08:05;;;;;;;36.63;21.55;;;;;;;10.32;100.00;100453.53;5014509;28;20109;-62
2021/10/30 00:10:31;;;;;;;37.35;21.38;;;;;;;10.34;100.00;100446.53;5014540;28;20034;-62
2021/10/30 00:12:57;;;;;;;35.92;21.13;;;;;;;10.37;100.00;100450.91;5014459;28;20064;-61
2021/10/30 00:15:22;;;;;;;36.83;21.52;;;;;;;10.40;100.00;100446.50;5013208;28;20030;-64
2021/10/30 00:17:47;;;;;;;34.40;20.65;;;;;;;10.41;100.00;100448.28;5014469;28;20022;-68
2021/10/30 00:20:12;;;;;;;36.40;21.00;;;;;;;10.42;100.00;100444.72;5014212;28;20026;-65
2021/10/30 00:22:38;;;;;;;34.05;20.98;;;;;;;10.43;100.00;100441.22;5014377;28;20053;-69
2021/10/30 00:25:05;;;;;;;34.40;20.50;;;;;;;10.44;100.00;100443.00;5014200;28;20072;-62
2021/10/30 00:27:30;;;;;;;35.08;20.52;;;;;;;10.46;100.00;100440.34;5012691;28;20133;-65
2021/10/30 00:29:55;;;;;;;36.47;20.77;;;;;;;10.43;100.00;100419.22;5014155;28;20034;-62
2021/10/30 00:32:21;;;;;;;34.50;20.15;;;;;;;10.40;100.00;100413.94;5014064;28;20022;-68
2021/10/30 00:34:46;;;;;;;34.47;20.08;;;;;;;10.36;100.00;100413.03;5013990;28;20468;-67
2021/10/30 00:37:11;;;;;;;34.00;20.02;;;;;;;10.33;100.00;100413.03;5013940;28;20026;-64
2021/10/30 00:39:38;;;;;;;35.25;20.15;;;;;;;10.30;100.00;100415.66;5013965;28;20515;-63
2021/10/30 00:42:04;;;;;;;34.72;20.48;;;;;;;10.30;100.00;100410.38;5013763;28;20037;-61
2021/10/30 00:44:29;;;;;;;36.38;20.85;;;;;;;10.25;100.00;100405.13;5013873;28;20030;-68
2021/10/30 00:46:54;;;;;;;37.25;20.55;;;;;;;10.21;100.00;100394.56;5013741;28;20030;-63
2021/10/30 00:49:22;;;;;;;36.50;20.70;;;;;;;10.24;100.00;100402.47;5013605;28;20025;-61
2021/10/30 00:51:51;;;;;;;37.78;20.45;;;;;;;10.20;100.00;100403.34;5013779;28;20075;-61
2021/10/30 00:54:18;;;;;;;35.65;20.70;;;;;;;10.17;100.00;100398.94;5013835;28;20030;-61
2021/10/30 00:56:44;;;;;;;35.08;20.73;;;;;;;10.09;100.00;100401.59;5013541;28;20496;-61
2021/10/30 00:59:15;;;;;;;34.92;20.40;;;;;;;10.10;100.00;100405.13;5013715;28;20057;-62
2021/10/30 01:01:42;;;;;;;36.03;20.88;;;;;;;10.08;100.00;100402.47;5013811;28;20419;-62
2021/10/30 01:04:08;;;;;;;35.28;20.95;;;;;;;10.06;100.00;100400.72;5013526;28;20025;-62
2021/10/30 01:06:36;;;;;;;35.17;20.98;;;;;;;10.05;100.00;100391.91;5013543;28;20034;-62
2021/10/30 01:09:03;;;;;;;36.63;21.33;;;;;;;9.98;100.00;100387.53;5013640;28;20465;-61
2021/10/30 01:11:28;;;;;;;35.20;21.60;;;;;;;9.95;100.00;100385.75;5013294;28;20109;-62
2021/10/30 01:13:54;;;;;;;36.67;21.13;;;;;;;9.94;100.00;100383.13;5013796;28;20116;-65
2021/10/30 01:16:21;;;;;;;36.53;21.90;;;;;;;9.91;100.00;100384.00;5013289;28;20096;-62
2021/10/30 01:18:48;;;;;;;35.20;21.90;;;;;;;9.91;100.00;100388.41;5013227;28;20445;-62
2021/10/30 01:21:22;;;;;;;36.42;21.95;;;;;;;9.88;100.00;100383.13;5013499;28;20022;-61
2021/10/30 01:23:48;;;;;;;38.10;22.15;;;;;;;9.90;100.00;100379.63;5013619;28;20388;-70
2021/10/30 01:26:13;;;;;;;37.35;22.75;;;;;;;9.92;100.00;100384.88;5012491;28;20038;-70
2021/10/30 01:28:40;;;;;;;38.88;22.48;;;;;;;9.91;100.00;100385.75;5012075;28;20034;-70
2021/10/30 01:31:05;;;;;;;38.75;23.30;;;;;;;9.89;100.00;100384.91;5005522;28;20038;-70
2021/10/30 01:33:31;;;;;;;39.42;23.33;;;;;;;9.87;100.00;100378.72;5004362;28;20168;-69
2021/10/30 01:35:56;;;;;;;39.28;22.90;;;;;;;9.85;100.00;100377.84;5002714;28;20030;-70
2021/10/30 01:38:22;;;;;;;40.22;23.20;;;;;;;9.84;100.00;100376.09;5003285;28;20026;-70
2021/10/30 01:40:50;;;;;;;38.35;22.88;;;;;;;9.86;100.00;100372.56;5003773;28;20477;-70
2021/10/30 01:43:17;;;;;;;38.83;23.33;;;;;;;9.87;100.00;100365.50;5002537;28;20102;-70
2021/10/30 01:45:44;;;;;;;40.67;22.92;;;;;;;9.85;100.00;100362.88;5004648;28;20076;-70
2021/10/30 01:48:11;;;;;;;38.05;22.88;;;;;;;9.88;100.00;100364.66;5001398;28;20200;-70
2021/10/30 01:50:38;;;;;;;38.90;22.90;;;;;;;9.87;100.00;100362.88;5009221;28;20037;-70
2021/10/30 01:53:04;;;;;;;38.58;22.98;;;;;;;9.87;100.00;100353.22;5012810;28;20535;-69
2021/10/30 01:55:33;;;;;;;38.38;22.92;;;;;;;9.88;100.00;100356.72;5012808;28;20472;-69
2021/10/30 01:57:59;;;;;;;39.35;22.80;;;;;;;9.90;100.00;100349.66;5012936;28;20161;-70
2021/10/30 02:00:26;;;;;;;37.42;22.48;;;;;;;9.94;100.00;100346.16;5012791;28;20083;-70
2021/10/30 02:02:51;;;;;;;37.80;22.70;;;;;;;9.99;100.00;100336.47;5012960;28;20371;-70
2021/10/30 02:05:17;;;;;;;36.78;22.90;;;;;;;9.99;100.00;100333.84;5012812;28;20101;-70
2021/10/30 02:07:44;;;;;;;37.55;21.58;;;;;;;10.04;100.00;100326.78;5012712;28;20029;-70
2021/10/30 02:10:11;;;;;;;36.33;21.98;;;;;;;10.07;100.00;100326.75;5012542;28;20495;-66
2021/10/30 02:12:37;;;;;;;35.83;21.33;;;;;;;10.06;100.00;100322.38;5009340;28;20042;-62
2021/10/30 02:15:03;;;;;;;37.28;21.45;;;;;;;10.07;100.00;100321.47;5012678;28;20108;-61
2021/10/30 02:17:29;;;;;;;36.00;20.70;;;;;;;10.07;100.00;100304.78;5012858;28;20106;-61
2021/10/30 02:19:54;;;;;;;35.05;20.25;;;;;;;10.09;100.00;100305.63;5012648;28;20068;-61
2021/10/30 02:22:19;;;;;;;34.63;19.80;;;;;;;10.11;100.00;100302.13;5012743;28;20030;-61
2021/10/30 02:24:45;;;;;;;35.25;20.58;;;;;;;10.11;100.00;100291.53;5012721;28;20468;-62
2021/10/30 02:27:10;;;;;;;35.75;20.63;;;;;;;10.15;100.00;100294.19;5012678;28;20046;-61
2021/10/30 02:29:35;;;;;;;36.15;20.70;;;;;;;10.16;100.00;100272.16;5008559;28;20373;-61
2021/10/30 02:32:02;;;;;;;36.75;20.48;;;;;;;10.16;100.00;100272.16;5012704;28;20117;-61
2021/10/30 02:34:28;;;;;;;35.47;20.27;;;;;;;10.18;100.00;100270.38;5012941;28;20097;-62
2021/10/30 02:36:54;;;;;;;35.90;21.75;;;;;;;10.17;100.00;100273.94;5012239;28;20030;-65
2021/10/30 02:39:19;;;;;;;35.88;21.73;;;;;;;10.20;100.00;100263.34;5014305;28;20030;-63
2021/10/30 02:41:44;;;;;;;39.03;23.23;;;;;;;10.21;100.00;100252.78;5016327;28;20034;-62
2021/10/30 02:44:10;;;;;;;36.75;22.58;;;;;;;10.25;100.00;100258.91;5016024;28;20440;-61
2021/10/30 02:46:35;;;;;;;38.08;23.55;;;;;;;10.28;100.00;100264.19;5016218;28;20022;-62
2021/10/30 02:49:00;;;;;;;37.25;22.63;;;;;;;10.34;100.00;100261.59;5016209;28;20033;-62
2021/10/30 02:51:26;;;;;;;37.35;22.17;;;;;;;10.39;100.00;100259.78;5015725;28;20098;-62
2021/10/30 02:53:51;;;;;;;37.75;22.45;;;;;;;10.42;100.00;100248.34;5016256;28;20113;-62
2021/10/30 02:56:16;;;;;;;37.08;22.13;;;;;;;10.46;100.00;100239.50;5016196;28;20979;-62
2021/10/30 02:58:42;;;;;;;35.42;21.67;;;;;;;10.45;100.00;100228.03;5015774;28;20448;-61
2021/10/30 03:01:07;;;;;;;36.50;22.33;;;;;;;10.46;100.00;100237.72;5015989;28;20104;-61
2021/10/30 03:03:33;;;;;;;36.35;22.42;;;;;;;10.45;100.00;100228.03;5015614;28;20030;-63
2021/10/30 03:05:59;;;;;;;37.15;23.13;;;;;;;10.46;100.00;100221.00;5015688;28;20026;-63
2021/10/30 03:08:24;;;;;;;39.70;22.52;;;;;;;10.43;100.00;100213.97;5015875;28;20021;-62
2021/10/30 03:10:50;;;;;;;38.10;22.95;;;;;;;10.46;100.00;100223.66;5015703;28;20056;-62
2021/10/30 03:13:15;;;;;;;38.67;23.25;;;;;;;10.42;100.00;100222.78;5015652;28;20030;-62
2021/10/30 03:15:41;;;;;;;38.88;23.95;;;;;;;10.43;100.00;100226.31;5015765;28;20484;-70
2021/10/30 03:18:06;;;;;;;36.90;22.40;;;;;;;10.44;100.00;100218.38;5011511;28;20476;-70
2021/10/30 03:20:31;;;;;;;37.53;22.55;;;;;;;10.45;100.00;100227.16;5015353;28;20025;-65
2021/10/30 03:22:57;;;;;;;37.58;22.73;;;;;;;10.49;100.00;100223.63;5015448;28;20369;-71
2021/10/30 03:25:22;;;;;;;37.22;22.73;;;;;;;10.51;100.00;100220.97;5015261;28;20096;-70
2021/10/30 03:27:47;;;;;;;37.45;22.52;;;;;;;10.55;100.00;100213.03;5015438;28;20030;-70
2021/10/30 03:30:13;;;;;;;37.90;22.42;;;;;;;10.55;100.00;100201.59;5015121;28;20030;-70
2021/10/30 03:32:39;;;;;;;37.30;22.25;;;;;;;10.54;100.00;100194.53;5015299;28;20026;-70
2021/10/30 03:35:05;;;;;;;37.60;22.15;;;;;;;10.53;100.00;100193.66;5015221;28;20046;-70
2021/10/30 03:37:35;;;;;;;37.05;22.83;;;;;;;10.52;100.00;100191.91;5015058;28;20025;-69
2021/10/30 03:40:03;;;;;;;38.03;21.83;;;;;;;10.51;100.00;100178.69;5014932;28;20627;-70
2021/10/30 03:42:29;;;;;;;37.75;22.63;;;;;;;10.52;100.00;100180.47;5015144;28;20029;-70
2021/10/30 03:44:54;;;;;;;38.42;23.85;;;;;;;10.52;100.00;100175.19;5015074;28;20026;-70
2021/10/30 03:47:19;;;;;;;38.53;23.77;;;;;;;10.52;100.00;100165.47;5014932;28;20054;-70
2021/10/30 03:49:45;;;;;;;38.40;23.83;;;;;;;10.52;100.00;100164.63;5014750;28;20077;-70
2021/10/30 03:52:10;;;;;;;39.25;24.20;;;;;;;10.53;100.00;100168.97;5014821;28;20079;-70
2021/10/30 03:54:36;;;;;;;41.55;24.25;;;;;;;10.55;100.00;100161.94;5014902;28;20026;-70
2021/10/30 03:57:02;;;;;;;37.88;23.88;;;;;;;10.55;100.00;100159.31;5014898;28;20076;-67
2021/10/30 03:59:27;;;;;;;41.22;24.40;;;;;;;10.56;100.00;100150.50;5014551;28;20025;-67
2021/10/30 04:01:53;;;;;;;39.28;24.05;;;;;;;10.57;100.00;100163.69;5014602;28;20109;-68
2021/10/30 04:04:18;;;;;;;38.15;23.90;;;;;;;10.57;100.00;100160.16;5014675;28;20109;-64
2021/10/30 04:06:44;;;;;;;41.92;24.45;;;;;;;10.58;100.00;100160.16;5014566;28;20111;-62
2021/10/30 04:09:09;;;;;;;39.10;23.80;;;;;;;10.61;100.00;100164.53;5014360;28;20486;-65
2021/10/30 04:11:34;;;;;;;39.42;24.75;;;;;;;10.59;100.00;100163.69;5014539;28;20395;-68
2021/10/30 04:14:00;;;;;;;40.40;24.17;;;;;;;10.60;100.00;100162.78;5014694;28;20566;-67
2021/10/30 04:16:25;;;;;;;39.97;24.90;;;;;;;10.58;100.00;100156.63;5014659;28;20061;-68
2021/10/30 04:18:51;;;;;;;40.97;25.20;;;;;;;10.57;100.00;100160.16;5014468;28;20431;-64
2021/10/30 04:21:16;;;;;;;42.40;26.38;;;;;;;10.58;100.00;100160.16;5014500;28;20026;-62
2021/10/30 04:23:42;;;;;;;40.78;25.67;;;;;;;10.56;100.00;100159.28;5014652;28;20083;-65
2021/10/30 04:26:07;;;;;;;39.80;24.80;;;;;;;10.54;100.00;100160.19;5013869;28;20077;-68
2021/10/30 04:28:33;;;;;;;40.75;25.02;;;;;;;10.55;100.00;100169.88;5014388;28;20076;-71
2021/10/30 04:31:04;;;;;;;43.15;26.38;;;;;;;10.54;100.00;100163.72;5012857;28;20048;-62
2021/10/30 04:33:29;;;;;;;40.78;25.60;;;;;;;10.52;100.00;100159.31;5013935;28;20112;-62
2021/10/30 04:35:54;;;;;;;40.30;25.48;;;;;;;10.53;100.00;100161.06;5014035;28;20053;-62
2021/10/30 04:38:20;;;;;;;42.63;26.13;;;;;;;10.51;100.00;100160.22;5014307;28;20056;-62
2021/10/30 04:40:45;;;;;;;41.30;25.42;;;;;;;10.48;100.00;100154.94;5013805;28;20080;-63
2021/10/30 04:43:11;;;;;;;41.10;25.13;;;;;;;10.46;100.00;100154.94;5013896;28;20049;-63
2021/10/30 04:45:40;;;;;;;39.97;24.80;;;;;;;10.45;100.00;100161.13;5014284;28;20048;-62
2021/10/30 04:48:06;;;;;;;39.45;24.20;;;;;;;10.42;100.00;100148.78;5013899;28;20029;-61
2021/10/30 04:50:31;;;;;;;39.83;24.83;;;;;;;10.43;100.00;100147.91;5013942;28;20538;-61
2021/10/30 04:52:56;;;;;;;40.03;24.60;;;;;;;10.42;100.00;100147.94;5013934;28;20018;-63
2021/10/30 04:55:22;;;;;;;38.95;23.92;;;;;;;10.39;100.00;100140.03;5013831;28;20033;-64
2021/10/30 04:57:48;;;;;;;40.47;23.90;;;;;;;10.39;100.00;100127.69;5013730;28;20065;-61
2021/10/30 05:00:13;;;;;;;37.70;24.77;;;;;;;10.40;100.00;100128.56;5013967;28;20034;-62
2021/10/30 05:02:38;;;;;;;38.70;23.17;;;;;;;10.37;100.00;100125.94;5013209;28;20026;-62
2021/10/30 05:05:04;;;;;;;37.20;22.05;;;;;;;10.36;100.00;100126.84;5013515;28;20021;-62
2021/10/30 05:07:30;;;;;;;36.92;22.63;;;;;;;10.36;100.00;100117.13;5013564;28;20030;-62
2021/10/30 05:09:55;;;;;;;37.85;22.63;;;;;;;10.34;100.00;100118.03;5013258;28;20030;-62
2021/10/30 05:12:20;;;;;;;40.83;22.48;;;;;;;10.34;100.00;100118.91;5013794;28;20034;-61
2021/10/30 05:14:45;;;;;;;39.40;23.30;;;;;;;10.32;100.00;100119.78;5013322;28;20115;-62
2021/10/30 05:17:11;;;;;;;43.40;23.48;;;;;;;10.33;100.00;100110.97;5013341;28;20022;-62
2021/10/30 05:19:36;;;;;;;37.78;22.25;;;;;;;10.30;100.00;100107.44;5013382;28;20029;-67
2021/10/30 05:22:02;;;;;;;38.25;22.20;;;;;;;10.32;100.00;100103.94;5013200;28;20033;-62
2021/10/30 05:24:27;;;;;;;37.30;22.10;;;;;;;10.31;100.00;100095.13;5013183;28;20481;-64
2021/10/30 05:26:52;;;;;;;36.53;22.23;;;;;;;10.31;100.00;100095.13;5012900;28;20049;-61
2021/10/30 05:29:18;;;;;;;39.15;22.42;;;;;;;10.30;100.00;100075.75;5013312;28;20100;-62
2021/10/30 05:31:43;;;;;;;38.78;22.75;;;;;;;10.30;100.00;100072.25;5013103;28;20037;-61
2021/10/30 05:34:08;;;;;;;39.75;22.27;;;;;;;10.28;100.00;100074.88;5013303;28;20019;-62
2021/10/30 05:36:36;;;;;;;38.17;22.73;;;;;;;10.28;100.00;100066.06;5013113;28;20488;-62
2021/10/30 05:39:05;;;;;;;40.38;22.77;;;;;;;10.29;100.00;100073.13;5012937;28;20018;-61
2021/10/30 05:41:30;;;;;;;38.78;21.90;;;;;;;10.26;100.00;100071.38;5013020;28;20052;-61
2021/10/30 05:43:56;;;;;;;39.83;23.05;;;;;;;10.29;100.00;100067.84;5012871;28;20464;-61
2021/10/30 05:46:21;;;;;;;39.13;22.70;;;;;;;10.26;100.00;100057.28;5012850;28;20026;-61
2021/10/30 05:48:47;;;;;;;40.22;24.20;;;;;;;10.26;100.00;100059.94;5013137;28;20021;-62
2021/10/30 05:51:12;;;;;;;40.50;23.52;;;;;;;10.24;100.00;100049.38;5012853;28;20033;-63
2021/10/30 05:53:38;;;;;;;40.13;24.27;;;;;;;10.24;100.00;100061.72;5012940;28;20121;-62
2021/10/30 05:56:03;;;;;;;41.55;24.92;;;;;;;10.23;100.00;100060.81;5013029;28;20040;-62
2021/10/30 05:58:29;;;;;;;43.72;24.77;;;;;;;10.24;100.00;100062.59;5011502;28;20091;-61
2021/10/30 06:00:54;;;;;;;41.72;23.35;;;;;;;10.23;100.00;100065.25;5013264;28;20025;-62
2021/10/30 06:03:19;;;;;;;44.45;24.10;;;;;;;10.23;100.00;100062.59;5012958;28;20033;-65
2021/10/30 06:05:45;;;;;;;42.92;24.85;;;;;;;10.23;100.00;100070.53;5012667;28;20029;-65
2021/10/30 06:08:10;;;;;;;46.17;24.00;;;;;;;10.21;100.00;100069.66;5013143;28;20153;-61
2021/10/30 06:10:35;;;;;;;42.25;24.42;;;;;;;10.20;100.00;100063.50;5011565;28;20493;-61
2021/10/30 06:13:01;;;;;;;43.75;24.50;;;;;;;10.20;100.00;100065.25;5014122;28;20082;-62
2021/10/30 06:15:27;;;;;;;40.78;24.13;;;;;;;10.19;100.00;100060.84;5016995;28;20109;-64
2021/10/30 06:17:52;;;;;;;39.85;23.52;;;;;;;10.20;100.00;100063.50;5016560;28;20030;-64
2021/10/30 06:20:17;;;;;;;43.33;25.02;;;;;;;10.18;100.00;100077.59;5016502;28;20033;-63
2021/10/30 06:22:43;;;;;;;42.55;25.65;;;;;;;10.19;100.00;100071.41;5016722;28;20053;-64
2021/10/30 06:25:13;;;;;;;42.13;24.70;;;;;;;10.20;100.00;100067.91;5008329;28;20030;-61
2021/10/30 06:27:39;;;;;;;43.00;25.33;;;;;;;10.19;100.00;100058.22;5008717;28;20089;-62
2021/10/30 06:30:07;;;;;;;42.05;25.45;;;;;;;10.22;100.00;100076.69;5007796;28;20069;-62
2021/10/30 06:32:33;;;;;;;40.95;24.92;;;;;;;10.22;100.00;100066.13;5005319;28;20503;-63
2021/10/30 06:34:58;;;;;;;41.90;24.88;;;;;;;10.21;100.00;100054.69;5005653;28;20026;-60
2021/10/30 06:37:24;;;;;;;43.72;25.42;;;;;;;10.20;100.00;100044.13;5019969;28;20116;-64
2021/10/30 06:39:49;;;;;;;42.10;25.98;;;;;;;10.20;100.00;100052.06;5020825;28;20018;-65
2021/10/30 06:42:15;;;;;;;40.83;25.52;;;;;;;10.21;100.00;100051.19;5018708;28;20029;-63
2021/10/30 06:44:41;;;;;;;44.58;24.95;;;;;;;10.21;100.00;100053.81;5013875;28;20464;-63
2021/10/30 06:47:07;;;;;;;42.22;24.83;;;;;;;10.21;100.00;100041.47;5012219;28;20025;-64
2021/10/30 06:49:32;;;;;;;41.60;25.55;;;;;;;10.21;100.00;100035.34;5011130;28;20362;-63
2021/10/30 06:51:58;;;;;;;43.90;25.80;;;;;;;10.21;100.00;100037.97;5016110;28;20381;-63
2021/10/30 06:54:24;;;;;;;42.72;25.63;;;;;;;10.23;100.00;100039.69;5015182;28;20041;-64
2021/10/30 06:56:50;;;;;;;41.63;25.55;;;;;;;10.21;100.00;100030.91;5016058;28;20033;-63
2021/10/30 06:59:16;;;;;;;40.55;24.70;;;;;;;10.21;100.00;100027.41;5018165;28;20033;-63
2021/10/30 07:01:42;;;;;;;41.35;24.50;;;;;;;10.22;100.00;100037.06;5015316;28;20104;-63
2021/10/30 07:04:07;;;;;;;40.75;24.83;;;;;;;10.20;100.00;100025.66;5018864;28;20109;-62
2021/10/30 07:06:33;;;;;;;43.63;25.30;;;;;;;10.22;100.00;100031.78;5007130;28;20121;-63
2021/10/30 07:08:59;;;;;;;43.70;25.67;;;;;;;10.20;100.00;100023.88;5017001;28;20025;-64
2021/10/30 07:11:25;;;;;;;42.10;24.33;;;;;;;10.21;100.00;100016.84;5011392;28;20466;-63
2021/10/30 07:13:51;;;;;;;40.90;25.08;;;;;;;10.21;100.00;100016.84;5016477;28;20026;-64
2021/10/30 07:16:16;;;;;;;43.80;25.85;;;;;;;10.21;100.00;100012.44;5012832;28;20099;-63
2021/10/30 07:18:43;;;;;;;42.50;25.83;;;;;;;10.22;100.00;100015.94;5008305;28;20488;-64
2021/10/30 07:21:09;;;;;;;43.72;25.90;;;;;;;10.21;100.00;100017.72;5008191;28;20112;-61
2021/10/30 07:23:35;;;;;;;43.08;24.92;;;;;;;10.22;100.00;100008.00;5014146;28;20490;-63
2021/10/30 07:26:00;;;;;;;41.97;25.50;;;;;;;10.22;100.00;100013.28;5011981;28;20050;-63
2021/10/30 07:28:26;;;;;;;42.00;24.70;;;;;;;10.22;100.00;100022.13;5017293;28;20022;-63
2021/10/30 07:30:51;;;;;;;40.78;24.23;;;;;;;10.23;100.00;100015.06;5012088;28;20041;-61
2021/10/30 07:33:16;;;;;;;40.83;24.35;;;;;;;10.23;100.00;100007.13;5010923;28;20476;-64
2021/10/30 07:35:42;;;;;;;41.53;24.73;;;;;;;10.25;100.00;100010.63;5020127;28;20030;-62
2021/10/30 07:38:07;;;;;;;40.35;23.95;;;;;;;10.25;100.00;100002.69;5014733;28;20105;-63
2021/10/30 07:40:33;;;;;;;40.47;24.17;;;;;;;10.26;100.00;100002.69;5013335;28;20049;-63
2021/10/30 07:42:59;;;;;;;40.92;24.60;;;;;;;10.28;100.00;100005.31;5015223;28;20464;-63
2021/10/30 07:45:25;;;;;;;39.53;23.42;;;;;;;10.28;100.00;100005.31;5013349;28;20041;-61
2021/10/30 07:47:51;;;;;;;39.10;22.63;;;;;;;10.30;100.00;100007.06;5018487;28;20100;-61
2021/10/30 07:50:16;;;;;;;41.28;24.38;;;;;;;10.32;100.00;100004.41;5013109;28;20105;-61
2021/10/30 07:52:42;;;;;;;39.92;24.02;;;;;;;10.34;100.00;100000.03;5012035;28;20109;-61
2021/10/30 07:55:08;;;;;;;36.83;22.33;;;;;;;10.35;100.00;100003.53;5016655;28;20053;-61
2021/10/30 07:57:33;;;;;;;35.33;21.65;;;;;;;10.36;100.00;99992.09;5014748;28;20033;-61
2021/10/30 07:59:58;;;;;;;37.85;22.00;;;;;;;10.39;100.00;99995.56;5020212;28;20034;-61
2021/10/30 08:02:24;;;;;;;37.58;22.33;;;;;;;10.39;100.00;99994.72;5015453;28;20115;-67
2021/10/30 08:04:50;;;;;;;37.78;22.20;;;;;;;10.41;100.00;99990.28;5014457;28;20050;-62
2021/10/30 08:07:15;;;;;;;36.45;22.23;;;;;;;10.40;100.00;99994.69;5019657;28;20029;-63
2021/10/30 08:09:41;;;;;;;35.13;21.63;;;;;;;10.41;100.00;99988.53;5018881;28;20018;-64
2021/10/30 08:12:08;;;;;;;36.85;21.77;;;;;;;10.43;100.00;100001.72;5014393;28;20022;-63
2021/10/30 08:14:33;;;;;;;34.22;20.80;;;;;;;10.44;100.00;99991.13;5018794;28;20105;-63
2021/10/30 08:16:58;;;;;;;37.15;21.95;;;;;;;10.43;100.00;99981.44;5019642;28;20033;-62
2021/10/30 08:19:24;;;;;;;35.58;21.58;;;;;;;10.45;100.00;99984.06;5017304;28;20022;-64
2021/10/30 08:21:49;;;;;;;37.35;21.20;;;;;;;10.45;100.00;99982.31;5015914;28;20032;-63
2021/10/30 08:24:15;;;;;;;34.60;21.38;;;;;;;10.46;100.00;99986.72;5013688;28;20041;-63
2021/10/30 08:26:41;;;;;;;33.67;20.08;;;;;;;10.48;100.00;99985.81;5009239;28;20092;-60
2021/10/30 08:29:07;;;;;;;36.75;21.00;;;;;;;10.50;100.00;99984.03;5011289;28;20034;-61
2021/10/30 08:31:33;;;;;;;34.83;20.73;;;;;;;10.50;100.00;99982.28;5007296;28;20038;-62
2021/10/30 08:33:58;;;;;;;35.05;19.75;;;;;;;10.49;100.00;99975.25;5013876;28;20141;-62
2021/10/30 08:36:24;;;;;;;34.92;20.60;;;;;;;10.50;100.00;99976.09;5004603;28;20034;-63
2021/10/30 08:38:50;;;;;;;35.58;20.73;;;;;;;10.54;100.00;99972.56;5006438;28;20380;-61
2021/10/30 08:41:15;;;;;;;34.05;20.52;;;;;;;10.52;100.00;99969.06;5008144;28;20021;-64
2021/10/30 08:43:41;;;;;;;32.78;20.10;;;;;;;10.52;100.00;99964.63;5012309;28;20113;-63
2021/10/30 08:46:06;;;;;;;33.55;20.40;;;;;;;10.57;100.00;99970.78;5006896;28;20041;-61
2021/10/30 08:48:32;;;;;;;32.05;19.05;;;;;;;10.59;100.00;99970.75;5010387;28;20076;-61
2021/10/30 08:51:02;;;;;;;35.25;20.58;;;;;;;10.61;100.00;99974.25;5004233;28;20042;-61
2021/10/30 08:53:28;;;;;;;35.60;20.70;;;;;;;10.62;100.00;99957.50;5011331;28;20041;-61
2021/10/30 08:55:54;;;;;;;32.25;18.88;;;;;;;10.62;100.00;99966.31;5007653;28;20033;-61
2021/10/30 08:58:20;;;;;;;34.85;20.73;;;;;;;10.63;100.00;99969.84;5013644;28;20037;-61
2021/10/30 09:00:51;;;;;;;35.25;19.55;;;;;;;10.68;100.00;99959.22;5010564;28;20068;-66
2021/10/30 09:03:19;;;;;;;35.22;20.00;;;;;;;10.66;100.00;99964.53;5012105;28;20033;-67
2021/10/30 09:05:47;;;;;;;34.13;19.38;;;;;;;10.67;100.00;99974.19;5010815;28;20104;-67
2021/10/30 09:08:13;;;;;;;35.75;20.27;;;;;;;10.71;100.00;99967.09;5010060;28;20029;-63
2021/10/30 09:10:45;;;;;;;36.28;19.70;;;;;;;10.71;100.00;99965.34;5007108;28;20026;-64
2021/10/30 09:13:12;;;;;;;34.85;20.05;;;;;;;10.72;100.00;99958.31;5009643;28;20377;-66
2021/10/30 09:15:50;;;;;;;33.28;19.50;;;;;;;10.72;100.00;99966.22;5008795;28;20029;-64
2021/10/30 09:18:29;;;;;;;30.88;18.25;;;;;;;10.74;100.00;99965.28;5014135;28;20125;-69
2021/10/30 09:20:57;;;;;;;33.15;19.67;;;;;;;10.76;100.00;99963.53;5012062;28;20380;-63
2021/10/30 09:23:28;;;;;;;33.88;19.17;;;;;;;10.78;100.00;99960.88;5016222;28;20472;-66
2021/10/30 09:26:05;;;;;;;34.13;19.42;;;;;;;10.79;100.00;99963.50;5012543;28;20057;-65
2021/10/30 09:28:37;;;;;;;33.13;19.42;;;;;;;10.84;100.00;99965.22;5016420;28;20498;-64
2021/10/30 09:31:07;;;;;;;32.55;18.50;;;;;;;10.82;100.00;99958.16;5007435;28;20065;-67
2021/10/30 09:33:49;;;;;;;33.42;19.10;;;;;;;10.87;100.00;99965.19;5016666;28;20060;-68
2021/10/30 09:36:15;;;;;;;32.95;18.90;;;;;;;10.87;100.00;99962.53;5001896;28;20033;-62
2021/10/30 09:38:42;;;;;;;33.15;18.65;;;;;;;10.88;100.00;99961.63;5006769;28;20026;-67
2021/10/30 09:41:36;;;;;;;31.92;18.05;;;;;;;10.95;100.00;99965.97;5013461;28;20129;-65
2021/10/30 09:44:04;;;;;;;31.40;18.70;;;;;;;10.91;100.00;99964.25;5005078;28;20066;-65
2021/10/30 09:46:30;;;;;;;33.17;18.33;;;;;;;10.93;100.00;99975.69;5016830;28;21362;-62
2021/10/30 09:48:58;;;;;;;31.25;18.10;;;;;;;10.94;100.00;99964.22;5016025;28;20038;-66
2021/10/30 09:51:33;;;;;;;33.30;18.35;;;;;;;10.96;100.00;99965.06;5007776;28;20061;-63
2021/10/30 09:53:59;;;;;;;31.90;18.15;;;;;;;10.97;100.00;99964.19;5014569;28;20116;-62
2021/10/30 09:56:37;;;;;;;34.35;18.48;;;;;;;10.98;100.00;99963.31;5009129;28;20392;-62
2021/10/30 09:59:04;;;;;;;32.88;18.25;;;;;;;11.02;100.00;99969.41;5004442;28;20037;-62
2021/10/30 10:01:30;;;;;;;31.05;17.50;;;;;;;11.03;100.00;99961.47;5010209;28;20021;-64
2021/10/30 10:03:59;;;;;;;31.48;17.63;;;;;;;11.03;100.00;99963.25;5018135;28;20040;-64
2021/10/30 10:06:25;;;;;;;30.45;17.75;;;;;;;11.03;100.00;99961.47;5009982;28;20492;-64
2021/10/30 10:08:51;;;;;;;32.25;17.38;;;;;;;11.03;100.00;99956.19;5008658;28;20026;-62
2021/10/30 10:11:18;;;;;;;31.10;17.05;;;;;;;11.02;100.00;99957.06;5010234;28;20033;-63
2021/10/30 10:13:47;;;;;;;31.73;17.92;;;;;;;11.02;100.00;99965.00;5015424;28;20472;-64
2021/10/30 10:16:19;;;;;;;33.70;16.83;;;;;;;11.03;100.00;99956.19;5006769;28;20543;-63
2021/10/30 10:18:46;;;;;;;31.55;17.08;;;;;;;11.04;100.00;99949.09;5005151;28;20054;-63
2021/10/30 10:21:15;;;;;;;31.75;17.30;;;;;;;11.07;100.00;99946.47;5009891;28;20021;-64
2021/10/30 10:23:42;;;;;;;29.23;16.23;;;;;;;11.05;100.00;99948.22;5003843;28;20042;-67
2021/10/30 10:26:08;;;;;;;32.63;16.85;;;;;;;11.05;100.00;99938.50;5007556;28;20511;-67
2021/10/30 10:28:36;;;;;;;31.17;16.38;;;;;;;11.04;100.00;99942.06;5010904;28;20026;-68
2021/10/30 10:31:10;;;;;;;30.60;16.80;;;;;;;11.07;100.00;99938.53;5014055;28;20081;-67
2021/10/30 10:33:36;;;;;;;29.88;17.02;;;;;;;11.08;100.00;99927.91;5012071;28;20032;-64
2021/10/30 10:36:14;;;;;;;31.58;17.25;;;;;;;11.12;100.00;99934.91;5011874;28;20116;-64
2021/10/30 10:38:57;;;;;;;32.25;17.90;;;;;;;11.15;100.00;99928.69;5012001;28;20037;-66
2021/10/30 10:41:38;;;;;;;31.80;17.38;;;;;;;11.19;100.00;99938.34;5010809;28;20357;-65
2021/10/30 10:44:22;;;;;;;32.33;17.75;;;;;;;11.22;100.00;99933.03;5016386;28;20025;-64
2021/10/30 10:46:53;;;;;;;31.63;18.08;;;;;;;11.28;100.00;99924.13;5003779;28;20026;-64
2021/10/30 10:49:20;;;;;;;31.35;16.58;;;;;;;11.33;100.00;99932.91;5002174;28;20041;-62
2021/10/30 10:51:58;;;;;;;32.70;17.20;;;;;;;11.35;100.00;99931.09;5008013;28;20081;-63
2021/10/30 10:54:23;;;;;;;27.98;15.32;;;;;;;11.37;100.00;99918.72;5017946;28;20056;-63
2021/10/30 10:56:58;;;;;;;31.45;15.77;;;;;;;11.40;100.00;99913.41;5012275;28;20034;-64
2021/10/30 10:59:40;;;;;;;31.13;16.75;;;;;;;11.51;100.00;99905.28;5008242;28;20026;-65
2021/10/30 11:02:16;;;;;;;29.75;15.50;;;;;;;11.54;100.00;99904.38;5017108;28;20044;-62